createdAt,value
2023-04-15T00:01:38.218Z,5.38
2023-04-15T00:04:05.654Z,2.28
2023-04-15T00:06:33.061Z,3.33
2023-04-15T00:09:01.142Z,5.88
2023-04-15T00:11:29.080Z,4.53
2023-04-15T00:13:56.358Z,7.45
2023-04-15T00:16:23.621Z,4.03
2023-04-15T00:18:50.917Z,7.82
2023-04-15T00:21:18.198Z,6.20
2023-04-15T00:23:45.499Z,1.88
2023-04-15T00:26:12.913Z,3.47
2023-04-15T00:28:42.745Z,2.30
2023-04-15T00:31:10.050Z,2.85
2023-04-15T00:33:37.633Z,5.47
2023-04-15T00:36:07.599Z,2.85
2023-04-15T00:38:34.846Z,2.10
2023-04-15T00:41:04.086Z,1.80
2023-04-15T00:43:31.383Z,3.97
2023-04-15T00:45:59.783Z,6.18
2023-04-15T00:48:28.510Z,2.35
2023-04-15T00:53:23.352Z,3.30
2023-04-15T00:55:51.519Z,3.63
2023-04-15T00:58:19.555Z,1.88
2023-04-15T01:00:47.095Z,2.63
2023-04-15T01:03:15.709Z,2.97
2023-04-15T01:05:43.044Z,3.25
2023-04-15T01:08:10.818Z,3.47
2023-04-15T01:10:38.324Z,3.17
2023-04-15T01:13:05.712Z,2.08
2023-04-15T01:15:35.590Z,3.22
2023-04-15T01:18:03.403Z,3.20
2023-04-15T01:20:30.740Z,2.53
2023-04-15T01:22:57.999Z,5.40
2023-04-15T01:25:33.628Z,2.78
2023-04-15T01:28:01.490Z,3.03
2023-04-15T01:30:28.909Z,2.05
2023-04-15T01:32:56.395Z,4.82
2023-04-15T01:35:44.431Z,3.28
2023-04-15T01:38:12.657Z,5.78
2023-04-15T01:40:41.054Z,2.20
2023-04-15T01:43:09.591Z,2.15
2023-04-15T01:45:38.039Z,5.85
2023-04-15T01:50:39.620Z,2.53
2023-04-15T01:53:08.796Z,4.43
2023-04-15T01:55:37.778Z,7.78
2023-04-15T01:58:06.267Z,4.20
2023-04-15T02:00:34.982Z,3.00
2023-04-15T02:03:03.617Z,4.38
2023-04-15T02:05:32.171Z,5.32
2023-04-15T02:08:00.636Z,3.70
2023-04-15T02:10:29.102Z,2.63
2023-04-15T02:12:57.759Z,2.05
2023-04-15T02:15:29.723Z,3.15
2023-04-15T02:17:59.452Z,4.82
2023-04-15T02:20:27.951Z,6.32
2023-04-15T02:22:59.782Z,3.88
2023-04-15T02:25:28.333Z,1.92
2023-04-15T02:27:58.447Z,2.30
2023-04-15T02:30:27.378Z,2.72
2023-04-15T02:32:56.319Z,5.10
2023-04-15T02:35:27.193Z,3.72
2023-04-15T02:37:56.725Z,4.32
2023-04-15T02:40:25.476Z,2.00
2023-04-15T02:42:53.965Z,5.55
2023-04-15T02:45:24.383Z,3.97
2023-04-15T02:47:53.288Z,2.97
2023-04-15T02:50:23.782Z,3.85
2023-04-15T02:52:52.534Z,3.72
2023-04-15T02:55:21.170Z,5.10
2023-04-15T02:57:50.037Z,4.97
2023-04-15T03:00:18.658Z,4.53
2023-04-15T03:02:52.561Z,3.83
2023-04-15T03:05:21.295Z,7.38
2023-04-15T03:07:52.692Z,6.78
2023-04-15T03:10:22.550Z,4.45
2023-04-15T03:12:51.195Z,8.00
2023-04-15T03:15:22.670Z,7.13
2023-04-15T03:17:53.931Z,7.03
2023-04-15T03:20:22.483Z,5.93
2023-04-15T03:22:51.132Z,7.05
2023-04-15T03:25:21.826Z,7.45
2023-04-15T03:27:50.300Z,4.35
2023-04-15T03:30:19.455Z,6.35
2023-04-15T03:32:48.133Z,4.10
2023-04-15T03:35:17.360Z,4.15
2023-04-15T03:37:45.850Z,3.72
2023-04-15T03:40:14.355Z,2.67
2023-04-15T03:42:42.797Z,9.93
2023-04-15T03:45:11.923Z,5.32
2023-04-15T03:47:40.412Z,5.95
2023-04-15T03:50:09.347Z,2.60
2023-04-15T03:52:37.904Z,4.75
2023-04-15T03:55:06.844Z,3.80
2023-04-15T03:57:38.305Z,3.15
2023-04-15T04:00:12.373Z,4.95
2023-04-15T04:02:41.258Z,3.15
2023-04-15T04:05:10.184Z,4.65
2023-04-15T04:07:38.733Z,4.25
2023-04-15T04:10:08.092Z,4.22
2023-04-15T04:12:36.601Z,4.57
2023-04-15T04:15:06.036Z,3.50
2023-04-15T04:17:34.724Z,4.13
2023-04-15T04:20:03.407Z,8.05
2023-04-15T04:22:32.081Z,3.35
2023-04-15T04:25:02.920Z,4.50
2023-04-15T04:27:31.486Z,4.15
2023-04-15T04:29:59.965Z,7.95
2023-04-15T04:32:28.716Z,3.97
2023-04-15T04:34:57.130Z,4.68
2023-04-15T04:39:54.327Z,5.93
2023-04-15T04:42:23.095Z,5.78
2023-04-15T04:44:51.763Z,9.02
2023-04-15T04:47:20.266Z,2.17
2023-04-15T04:49:48.752Z,6.13
2023-04-15T04:52:17.393Z,2.50
2023-04-15T04:54:46.181Z,7.18
2023-04-15T04:57:14.718Z,5.93
2023-04-15T04:59:43.247Z,3.80
2023-04-15T05:02:12.114Z,1.77
2023-04-15T05:04:41.942Z,4.50
2023-04-15T05:07:11.014Z,1.92
2023-04-15T05:09:39.447Z,5.15
2023-04-15T05:17:06.058Z,3.95
2023-04-15T05:19:34.639Z,6.90
2023-04-15T05:22:03.448Z,4.57
2023-04-15T05:24:32.123Z,2.97
2023-04-15T05:27:02.082Z,2.47
2023-04-15T05:29:30.894Z,2.72
2023-04-15T05:31:59.331Z,2.47
2023-04-15T05:36:55.987Z,2.45
2023-04-15T05:39:24.426Z,9.05
2023-04-15T05:44:21.410Z,3.22
2023-04-15T05:46:49.872Z,4.95
2023-04-15T05:49:18.345Z,1.77
2023-04-15T05:51:48.462Z,7.78
2023-04-15T05:54:19.281Z,5.90
2023-04-15T05:56:48.527Z,4.40
2023-04-15T05:59:17.152Z,5.72
2023-04-15T06:01:45.793Z,2.10
2023-04-15T06:04:14.411Z,9.35
2023-04-15T06:06:42.967Z,2.90
2023-04-15T06:09:11.521Z,3.40
2023-04-15T06:11:41.512Z,7.82
2023-04-15T06:14:10.020Z,5.20
2023-04-15T06:16:38.925Z,4.55
2023-04-15T06:19:07.593Z,2.10
2023-04-15T06:24:04.697Z,6.30
2023-04-15T06:26:33.158Z,11.82
2023-04-15T06:29:01.816Z,10.38
2023-04-15T06:31:30.889Z,10.60
2023-04-15T06:33:59.287Z,2.90
2023-04-15T06:38:57.249Z,2.27
2023-04-15T06:41:25.822Z,3.80
2023-04-15T06:43:54.434Z,10.60
2023-04-15T06:46:23.360Z,2.40
2023-04-15T06:48:52.727Z,5.93
2023-04-15T06:51:21.385Z,3.30
2023-04-15T06:53:49.925Z,8.93
2023-04-15T06:56:18.446Z,7.68
2023-04-15T06:58:47.407Z,6.78
2023-04-15T07:01:15.971Z,7.45
2023-04-15T07:03:44.689Z,5.63
2023-04-15T07:06:13.484Z,5.85
2023-04-15T07:08:42.099Z,6.00
2023-04-15T07:11:10.627Z,4.78
2023-04-15T07:13:39.115Z,3.58
2023-04-15T07:16:07.750Z,4.53
2023-04-15T07:18:36.319Z,4.05
2023-04-15T07:21:05.342Z,4.22
2023-04-15T07:23:33.873Z,8.88
2023-04-15T07:26:02.945Z,4.90
2023-04-15T07:28:31.932Z,4.55
2023-04-15T07:31:01.010Z,5.97
2023-04-15T07:33:29.571Z,9.27
2023-04-15T07:35:58.341Z,5.43
2023-04-15T07:38:26.899Z,7.10
2023-04-15T07:40:55.576Z,7.68
2023-04-15T07:43:23.985Z,7.60
2023-04-15T07:48:20.815Z,2.58
2023-04-15T07:50:49.336Z,5.95
2023-04-15T07:53:17.706Z,7.63
2023-04-15T07:58:14.587Z,9.00
2023-04-15T08:00:43.077Z,7.78
2023-04-15T08:03:12.013Z,4.10
2023-04-15T08:05:40.593Z,3.10
2023-04-15T08:08:09.254Z,3.97
2023-04-15T08:10:38.109Z,10.77
2023-04-15T08:13:06.849Z,10.93
2023-04-15T08:15:35.316Z,5.57
2023-04-15T08:18:04.107Z,4.15
2023-04-15T08:20:32.763Z,8.07
2023-04-15T08:23:01.295Z,14.10
2023-04-15T08:25:29.742Z,8.95
2023-04-15T08:30:26.740Z,5.88
2023-04-15T08:32:55.208Z,5.65
2023-04-15T08:35:23.749Z,4.50
2023-04-15T08:37:52.425Z,4.05
2023-04-15T08:40:23.179Z,7.75
2023-04-15T08:42:54.914Z,4.53
2023-04-15T08:45:23.957Z,7.40
2023-04-15T08:47:59.669Z,10.73
2023-04-15T08:50:31.831Z,28.92
2023-04-15T08:53:00.665Z,10.23
2023-04-15T08:55:35.933Z,8.73
2023-04-15T08:58:06.068Z,8.02
2023-04-15T09:00:34.598Z,4.60
2023-04-15T09:03:04.510Z,6.22
2023-04-15T09:05:34.415Z,7.30
2023-04-15T09:08:04.338Z,4.82
2023-04-15T09:10:33.761Z,5.22
2023-04-15T09:13:03.052Z,8.95
2023-04-15T09:15:33.948Z,5.85
2023-04-15T09:18:02.619Z,13.82
2023-04-15T09:20:31.198Z,3.67
2023-04-15T09:22:59.665Z,3.90
2023-04-15T09:25:30.090Z,4.93
2023-04-15T09:28:02.425Z,4.63
2023-04-15T09:30:30.916Z,5.82
2023-04-15T09:33:08.550Z,4.90
2023-04-15T09:35:37.757Z,5.38
2023-04-15T09:38:10.123Z,2.95
2023-04-15T09:40:42.229Z,4.47
2023-04-15T09:43:13.224Z,7.40
2023-04-15T09:45:54.494Z,7.03
2023-04-15T09:48:31.342Z,3.50
2023-04-15T09:51:01.997Z,4.20
2023-04-15T09:53:33.148Z,4.32
2023-04-15T09:56:02.807Z,7.57
2023-04-15T09:58:35.322Z,7.60
2023-04-15T10:01:06.561Z,6.13
2023-04-15T10:03:38.867Z,3.30
2023-04-15T10:06:08.227Z,3.22
2023-04-15T10:08:36.697Z,6.93
2023-04-15T10:11:06.663Z,4.55
2023-04-15T10:13:37.585Z,5.70
2023-04-15T10:16:13.015Z,3.95
2023-04-15T10:18:46.377Z,3.67
2023-04-15T10:21:18.977Z,6.68
2023-04-15T10:23:47.936Z,3.25
2023-04-15T10:26:17.930Z,5.43
2023-04-15T10:28:50.233Z,6.22
2023-04-15T10:31:20.236Z,6.82
2023-04-15T10:33:49.838Z,5.80
2023-04-15T10:36:20.103Z,2.97
2023-04-15T10:38:48.605Z,6.82
2023-04-15T10:41:24.786Z,6.63
2023-04-15T10:43:57.050Z,4.55
2023-04-15T10:46:41.778Z,4.70
2023-04-15T10:49:24.433Z,2.78
2023-04-15T10:51:59.910Z,3.92
2023-04-15T10:54:28.686Z,4.10
2023-04-15T10:57:06.692Z,4.70
2023-04-15T10:59:59.023Z,4.65
2023-04-15T11:02:52.180Z,9.10
2023-04-15T11:05:23.415Z,6.00
2023-04-15T11:07:55.149Z,5.20
2023-04-15T11:10:26.704Z,2.80
2023-04-15T11:13:04.176Z,3.72
2023-04-15T11:15:41.271Z,3.40
2023-04-15T11:18:13.583Z,10.63
2023-04-15T11:20:47.621Z,2.42
2023-04-15T11:23:19.253Z,10.15
2023-04-15T11:25:48.950Z,7.90
2023-04-15T11:28:17.486Z,4.32
2023-04-15T11:30:45.947Z,5.55
2023-04-15T11:33:14.551Z,9.48
2023-04-15T11:35:43.220Z,4.10
2023-04-15T11:38:18.506Z,9.15
2023-04-15T11:40:47.321Z,2.35
2023-04-15T11:43:22.273Z,4.40
2023-04-15T11:46:02.698Z,3.10
2023-04-15T11:48:37.033Z,8.90
2023-04-15T11:51:08.144Z,6.07
2023-04-15T11:53:50.077Z,4.55
2023-04-15T11:56:27.493Z,8.13
2023-04-15T11:58:59.786Z,7.43
2023-04-15T12:01:44.084Z,7.43
2023-04-15T12:04:25.238Z,3.35
2023-04-15T12:06:53.375Z,8.18
2023-04-15T12:09:21.884Z,4.60
2023-04-15T12:11:57.570Z,3.30
2023-04-15T12:14:29.481Z,10.32
2023-04-15T12:17:05.669Z,25.40
2023-04-15T12:19:42.784Z,14.48
2023-04-15T12:22:13.019Z,13.73
2023-04-15T12:24:44.120Z,12.95
2023-04-15T12:27:13.041Z,11.52
2023-04-15T12:29:43.295Z,10.35
2023-04-15T12:32:12.004Z,8.68
2023-04-15T12:34:43.309Z,8.98
2023-04-15T12:37:14.505Z,8.88
2023-04-15T12:39:46.097Z,10.82
2023-04-15T12:42:13.424Z,15.77
2023-04-15T12:44:41.155Z,6.60
2023-04-15T12:47:09.849Z,8.68
2023-04-15T12:49:37.873Z,7.00
2023-04-15T12:52:05.784Z,17.13
2023-04-15T12:54:33.499Z,5.28
2023-04-15T12:57:01.232Z,10.65
2023-04-15T12:59:29.216Z,10.85
2023-04-15T13:01:56.679Z,12.93
2023-04-15T13:04:24.220Z,7.28
2023-04-15T13:06:51.660Z,11.30
2023-04-15T13:09:18.944Z,11.40
2023-04-15T13:11:46.530Z,41.17
2023-04-15T13:14:13.851Z,20.20
2023-04-15T13:16:41.818Z,10.10
2023-04-15T13:19:09.197Z,7.20
2023-04-15T13:21:36.908Z,8.47
2023-04-15T13:24:07.399Z,8.38
2023-04-15T13:26:34.938Z,9.38
2023-04-15T13:29:02.230Z,7.75
2023-04-15T13:31:29.552Z,4.67
2023-04-15T13:33:57.943Z,9.70
2023-04-15T13:36:25.257Z,12.52
2023-04-15T13:38:52.657Z,25.90
2023-04-15T13:41:21.406Z,9.30
2023-04-15T13:43:48.864Z,11.10
2023-04-15T13:46:16.388Z,8.50
2023-04-15T13:48:43.791Z,7.72
2023-04-15T13:51:11.187Z,4.17
2023-04-15T13:53:39.725Z,10.07
2023-04-15T13:56:11.158Z,5.00
2023-04-15T13:58:38.713Z,6.70
2023-04-15T14:01:07.427Z,4.07
2023-04-15T14:03:36.790Z,4.28
2023-04-15T14:06:05.929Z,4.70
2023-04-15T14:08:33.727Z,5.70
2023-04-15T14:11:01.588Z,8.40
2023-04-15T14:13:29.183Z,4.32
2023-04-15T14:15:57.805Z,10.23
2023-04-15T14:18:25.449Z,6.18
2023-04-15T14:20:52.739Z,5.95
2023-04-15T14:23:20.392Z,7.93
2023-04-15T14:25:48.477Z,7.75
2023-04-15T14:30:43.756Z,3.90
2023-04-15T14:33:11.236Z,6.80
2023-04-15T14:35:39.290Z,6.00
2023-04-15T14:38:10.936Z,6.20
2023-04-15T14:40:38.923Z,4.05
2023-04-15T14:43:06.187Z,6.33
2023-04-15T14:45:33.851Z,4.38
2023-04-15T14:48:01.693Z,10.45
2023-04-15T14:50:29.230Z,12.00
2023-04-15T14:52:56.511Z,6.47
2023-04-15T14:55:23.809Z,13.68
2023-04-15T14:57:51.118Z,37.22
2023-04-15T15:00:18.400Z,19.05
2023-04-15T15:02:47.777Z,8.00
2023-04-15T15:05:16.384Z,8.75
2023-04-15T15:07:43.870Z,17.83
2023-04-15T15:10:11.356Z,8.87
2023-04-15T15:12:38.623Z,13.48
2023-04-15T15:15:15.531Z,9.02
2023-04-15T15:17:49.459Z,16.92
2023-04-15T15:20:19.516Z,14.20
2023-04-15T15:22:46.957Z,13.35
2023-04-15T15:25:16.990Z,11.57
2023-04-15T15:27:44.696Z,15.02
2023-04-15T15:30:12.966Z,14.00
2023-04-15T15:32:42.824Z,10.35
2023-04-15T15:35:11.305Z,13.13
2023-04-15T15:40:06.854Z,35.55
2023-04-15T15:42:35.169Z,23.52
2023-04-15T15:45:04.449Z,22.70
2023-04-15T15:47:33.803Z,26.75
2023-04-15T15:50:06.136Z,26.60
2023-04-15T15:52:33.710Z,25.00
2023-04-15T15:55:04.155Z,21.23
2023-04-15T15:57:31.676Z,18.75
2023-04-15T16:00:10.523Z,19.05
2023-04-15T16:05:11.713Z,18.23
2023-04-15T16:07:39.020Z,19.42
2023-04-15T16:10:07.324Z,19.50
2023-04-15T16:15:02.482Z,19.35
2023-04-15T16:17:32.488Z,20.17
2023-04-15T16:20:00.989Z,25.20
2023-04-15T16:22:29.752Z,46.63
2023-04-15T16:24:57.028Z,20.90
2023-04-15T16:27:24.227Z,23.63
2023-04-15T16:29:51.523Z,28.80
2023-04-15T16:32:18.981Z,22.52
2023-04-15T16:34:46.591Z,23.77
2023-04-15T16:37:13.868Z,24.10
2023-04-15T16:39:41.192Z,25.70
2023-04-15T16:42:09.233Z,23.90
2023-04-15T16:44:36.635Z,22.55
2023-04-15T16:47:06.512Z,24.48
2023-04-15T16:49:35.688Z,16.10
2023-04-15T16:52:03.171Z,17.77
2023-04-15T16:54:30.584Z,19.33
2023-04-15T16:56:58.776Z,14.53
2023-04-15T16:59:26.470Z,15.57
2023-04-15T17:01:55.195Z,17.58
2023-04-15T17:04:24.974Z,14.32
2023-04-15T17:06:52.266Z,17.95
2023-04-15T17:09:19.532Z,13.98
2023-04-15T17:11:46.853Z,11.00
2023-04-15T17:14:14.376Z,17.00
2023-04-15T17:16:43.655Z,13.48
2023-04-15T17:19:11.634Z,20.70
2023-04-15T17:22:00.002Z,13.88
2023-04-15T17:24:47.168Z,16.75
2023-04-15T17:27:34.364Z,70.53
2023-04-15T17:30:21.589Z,175.35
2023-04-15T17:33:56.156Z,117.97
2023-04-15T17:36:18.125Z,70.68
2023-04-15T17:39:05.483Z,59.83
2023-04-15T17:41:52.988Z,50.78
2023-04-15T17:44:21.202Z,41.75
2023-04-15T17:47:09.188Z,36.53
2023-04-15T17:49:56.557Z,32.83
2023-04-15T17:52:44.411Z,29.58
2023-04-15T17:55:33.159Z,92.65
2023-04-15T17:58:20.585Z,82.18
2023-04-15T18:01:07.862Z,60.55
2023-04-15T18:03:55.212Z,55.40
2023-04-15T18:06:42.632Z,36.38
2023-04-15T18:09:29.933Z,34.65
2023-04-15T18:12:17.170Z,35.65
2023-04-15T18:15:04.805Z,48.70
2023-04-15T18:17:52.404Z,56.78
2023-04-15T18:20:19.799Z,45.40
2023-04-15T18:22:48.505Z,34.25
2023-04-15T18:25:15.975Z,34.15
2023-04-15T18:27:43.539Z,33.17
2023-04-15T18:30:12.253Z,27.90
2023-04-15T18:32:43.262Z,29.38
2023-04-15T18:35:10.933Z,38.70
2023-04-15T18:37:38.486Z,32.50
2023-04-15T18:40:08.165Z,19.70
2023-04-15T18:42:35.686Z,23.27
2023-04-15T18:45:03.229Z,26.35
2023-04-15T18:47:32.015Z,27.42
2023-04-15T18:49:59.662Z,28.17
2023-04-15T18:52:27.010Z,20.92
2023-04-15T18:54:54.419Z,22.58
2023-04-15T18:57:32.622Z,19.90
2023-04-15T19:00:02.328Z,18.67
2023-04-15T19:02:34.002Z,31.35
2023-04-15T19:05:04.341Z,24.52
2023-04-15T19:07:32.987Z,19.70
2023-04-15T19:10:00.395Z,20.58
2023-04-15T19:12:27.780Z,20.43
2023-04-15T19:14:55.172Z,16.38
2023-04-15T19:17:22.539Z,24.25
2023-04-15T19:19:50.120Z,15.90
2023-04-15T19:22:17.583Z,16.63
2023-04-15T19:24:46.125Z,14.87
2023-04-15T19:27:13.490Z,11.02
2023-04-15T19:29:40.891Z,16.10
2023-04-15T19:32:08.611Z,11.63
2023-04-15T19:34:36.151Z,11.85
2023-04-15T19:37:03.422Z,14.27
2023-04-15T19:39:30.781Z,11.65
2023-04-15T19:41:59.108Z,9.40
2023-04-15T19:46:53.807Z,12.65
2023-04-15T19:49:21.368Z,9.52
2023-04-15T19:51:50.623Z,15.23
2023-04-15T19:54:18.096Z,9.00
2023-04-15T19:56:45.342Z,9.70
2023-04-15T19:59:13.026Z,12.70
2023-04-15T20:01:40.395Z,14.48
2023-04-15T20:04:07.874Z,12.20
2023-04-15T20:06:35.450Z,11.23
2023-04-15T20:09:03.029Z,20.13
2023-04-15T20:12:44.862Z,10.90
2023-04-15T20:14:18.081Z,14.85
2023-04-15T20:16:45.445Z,13.77
2023-04-15T20:19:13.430Z,14.02
2023-04-15T20:21:41.012Z,7.75
2023-04-15T20:24:08.373Z,13.88
2023-04-15T20:26:36.367Z,23.10
2023-04-15T20:29:03.948Z,10.63
2023-04-15T20:31:31.571Z,12.60
2023-04-15T20:33:58.870Z,12.95
2023-04-15T20:36:26.999Z,16.98
2023-04-15T20:38:54.268Z,13.88
2023-04-15T20:41:22.309Z,10.30
2023-04-15T20:43:49.699Z,18.67
2023-04-15T20:46:21.028Z,14.50
2023-04-15T20:48:49.163Z,19.55
2023-04-15T20:51:16.765Z,15.97
2023-04-15T20:53:44.035Z,17.90
2023-04-15T20:56:11.779Z,12.90
2023-04-15T20:58:39.506Z,21.83
2023-04-15T21:01:07.297Z,16.92
2023-04-15T21:03:34.999Z,20.67
2023-04-15T21:06:02.532Z,15.02
2023-04-15T21:08:30.567Z,15.02
2023-04-15T21:10:58.007Z,15.13
2023-04-15T21:13:25.449Z,13.43
2023-04-15T21:15:54.563Z,14.57
2023-04-15T21:18:22.414Z,14.70
2023-04-15T21:20:57.981Z,19.88
2023-04-15T21:23:26.400Z,14.75
2023-04-15T21:25:53.715Z,18.63
2023-04-15T21:28:21.178Z,20.30
2023-04-15T21:30:49.629Z,26.97
2023-04-15T21:33:17.960Z,19.30
2023-04-15T21:35:45.295Z,18.42
2023-04-15T21:38:12.664Z,28.90
2023-04-15T21:40:41.094Z,21.38
2023-04-15T21:43:08.839Z,18.42
2023-04-15T21:45:39.461Z,20.67
2023-04-15T21:48:08.250Z,32.08
2023-04-15T21:50:39.024Z,23.98
2023-04-15T21:53:09.180Z,23.00
2023-04-15T21:55:36.541Z,14.95
2023-04-15T21:58:03.957Z,16.63
2023-04-15T22:00:31.223Z,11.25
2023-04-15T22:02:58.763Z,13.65
2023-04-15T22:05:26.726Z,13.70
2023-04-15T22:07:54.063Z,16.80
2023-04-15T22:10:21.493Z,16.00
2023-04-15T22:12:48.852Z,13.40
2023-04-15T22:15:17.097Z,22.88
2023-04-15T22:17:44.460Z,19.90
2023-04-15T22:20:11.834Z,25.08
2023-04-15T22:22:43.933Z,20.60
2023-04-15T22:25:12.861Z,18.00
2023-04-15T22:27:40.435Z,19.98
2023-04-15T22:30:08.715Z,18.33
2023-04-15T22:35:03.657Z,25.20
2023-04-15T22:37:33.795Z,21.75
2023-04-15T22:40:02.188Z,16.45
2023-04-15T22:42:32.341Z,10.50
2023-04-15T22:44:59.651Z,11.93
2023-04-15T22:47:27.219Z,17.75
2023-04-15T22:49:54.512Z,16.30
2023-04-15T22:52:30.112Z,13.40
2023-04-15T22:54:58.966Z,12.70
2023-04-15T22:57:28.006Z,16.67
2023-04-15T22:59:55.500Z,18.10
2023-04-15T23:02:23.020Z,18.75
2023-04-15T23:04:50.612Z,14.38
2023-04-15T23:07:18.014Z,11.50
2023-04-15T23:09:45.502Z,13.67
2023-04-15T23:12:14.206Z,14.07
2023-04-15T23:14:41.537Z,16.33
2023-04-15T23:17:08.712Z,10.68
2023-04-15T23:19:36.090Z,17.35
2023-04-15T23:22:03.692Z,14.43
2023-04-15T23:24:31.014Z,17.27
2023-04-15T23:26:58.275Z,12.70
2023-04-15T23:29:25.586Z,14.30
2023-04-15T23:31:52.959Z,13.07
2023-04-15T23:34:20.295Z,20.20
2023-04-15T23:36:47.776Z,13.10
2023-04-15T23:39:15.020Z,17.33
2023-04-15T23:41:42.255Z,9.82
2023-04-15T23:44:10.039Z,17.25
2023-04-15T23:46:37.327Z,10.57
2023-04-15T23:49:04.620Z,8.73
2023-04-15T23:51:31.897Z,17.65
2023-04-15T23:53:59.207Z,11.18
2023-04-15T23:56:26.618Z,14.57
2023-04-15T23:58:53.888Z,14.80
